sensor_id;sensor_type;location;lat;lon;timestamp;P1;durP1;ratioP1;P2;durP2;ratioP2
29838;SDS011;18669;53.356;-1.464;2023-01-13T00:01:23;13.27;;;2.47;;
29838;SDS011;18669;53.356;-1.464;2023-01-13T00:03:50;15.38;;;2.53;;
29838;SDS011;18669;53.356;-1.464;2023-01-13T00:06:18;10.43;;;1.90;;
29838;SDS011;18669;53.356;-1.464;2023-01-13T00:08:52;17.80;;;2.55;;
29838;SDS011;18669;53.356;-1.464;2023-01-13T00:11:18;20.08;;;3.38;;
29838;SDS011;18669;53.356;-1.464;2023-01-13T00:13:46;16.30;;;2.15;;
29838;SDS011;18669;53.356;-1.464;2023-01-13T00:16:13;18.60;;;2.70;;
29838;SDS011;18669;53.356;-1.464;2023-01-13T00:18:43;15.15;;;2.15;;
29838;SDS011;18669;53.356;-1.464;2023-01-13T00:21:11;16.60;;;1.98;;
29838;SDS011;18669;53.356;-1.464;2023-01-13T00:23:39;15.02;;;2.05;;
29838;SDS011;18669;53.356;-1.464;2023-01-13T00:26:10;10.50;;;1.63;;
29838;SDS011;18669;53.356;-1.464;2023-01-13T00:28:39;11.13;;;1.90;;
29838;SDS011;18669;53.356;-1.464;2023-01-13T00:31:10;8.32;;;1.48;;
29838;SDS011;18669;53.356;-1.464;2023-01-13T00:33:41;15.75;;;1.70;;
29838;SDS011;18669;53.356;-1.464;2023-01-13T00:36:08;5.13;;;1.00;;
29838;SDS011;18669;53.356;-1.464;2023-01-13T00:38:37;6.07;;;1.23;;
29838;SDS011;18669;53.356;-1.464;2023-01-13T00:41:05;6.95;;;2.33;;
29838;SDS011;18669;53.356;-1.464;2023-01-13T00:43:36;8.60;;;1.88;;
29838;SDS011;18669;53.356;-1.464;2023-01-13T00:46:03;6.20;;;1.35;;
29838;SDS011;18669;53.356;-1.464;2023-01-13T00:48:31;9.25;;;1.48;;
29838;SDS011;18669;53.356;-1.464;2023-01-13T00:51:00;13.38;;;1.60;;
29838;SDS011;18669;53.356;-1.464;2023-01-13T00:53:32;11.32;;;1.63;;
29838;SDS011;18669;53.356;-1.464;2023-01-13T00:56:04;10.02;;;1.48;;
29838;SDS011;18669;53.356;-1.464;2023-01-13T00:58:39;6.38;;;1.63;;
29838;SDS011;18669;53.356;-1.464;2023-01-13T01:01:07;15.73;;;1.90;;
29838;SDS011;18669;53.356;-1.464;2023-01-13T01:03:35;11.80;;;1.88;;
29838;SDS011;18669;53.356;-1.464;2023-01-13T01:06:13;7.95;;;1.17;;
29838;SDS011;18669;53.356;-1.464;2023-01-13T01:08:43;7.93;;;1.50;;
29838;SDS011;18669;53.356;-1.464;2023-01-13T01:11:10;6.93;;;1.73;;
29838;SDS011;18669;53.356;-1.464;2023-01-13T01:13:39;14.50;;;2.40;;
29838;SDS011;18669;53.356;-1.464;2023-01-13T01:16:06;7.35;;;1.85;;
29838;SDS011;18669;53.356;-1.464;2023-01-13T01:18:35;14.48;;;2.08;;
29838;SDS011;18669;53.356;-1.464;2023-01-13T01:21:03;8.60;;;1.38;;
29838;SDS011;18669;53.356;-1.464;2023-01-13T01:23:30;12.27;;;1.35;;
29838;SDS011;18669;53.356;-1.464;2023-01-13T01:26:01;11.68;;;2.22;;
29838;SDS011;18669;53.356;-1.464;2023-01-13T01:28:31;12.50;;;1.80;;
29838;SDS011;18669;53.356;-1.464;2023-01-13T01:30:58;10.20;;;2.22;;
29838;SDS011;18669;53.356;-1.464;2023-01-13T01:33:25;15.68;;;2.15;;
29838;SDS011;18669;53.356;-1.464;2023-01-13T01:35:51;12.55;;;2.45;;
29838;SDS011;18669;53.356;-1.464;2023-01-13T01:38:18;17.65;;;2.08;;
29838;SDS011;18669;53.356;-1.464;2023-01-13T01:40:47;11.10;;;1.88;;
29838;SDS011;18669;53.356;-1.464;2023-01-13T01:46:02;15.88;;;2.00;;
29838;SDS011;18669;53.356;-1.464;2023-01-13T01:48:29;14.13;;;2.05;;
29838;SDS011;18669;53.356;-1.464;2023-01-13T01:51:01;12.93;;;2.28;;
29838;SDS011;18669;53.356;-1.464;2023-01-13T01:53:28;13.25;;;2.40;;
29838;SDS011;18669;53.356;-1.464;2023-01-13T01:55:57;13.95;;;2.13;;
29838;SDS011;18669;53.356;-1.464;2023-01-13T01:58:28;11.82;;;1.75;;
29838;SDS011;18669;53.356;-1.464;2023-01-13T02:01:10;12.48;;;1.85;;
29838;SDS011;18669;53.356;-1.464;2023-01-13T02:03:38;13.38;;;1.92;;
29838;SDS011;18669;53.356;-1.464;2023-01-13T02:06:10;14.90;;;2.35;;
29838;SDS011;18669;53.356;-1.464;2023-01-13T02:08:37;10.68;;;2.88;;
29838;SDS011;18669;53.356;-1.464;2023-01-13T02:11:05;14.07;;;2.05;;
29838;SDS011;18669;53.356;-1.464;2023-01-13T02:13:52;18.35;;;2.05;;
29838;SDS011;18669;53.356;-1.464;2023-01-13T02:16:20;10.32;;;1.60;;
29838;SDS011;18669;53.356;-1.464;2023-01-13T02:22:20;14.18;;;2.45;;
29838;SDS011;18669;53.356;-1.464;2023-01-13T02:33:02;15.27;;;2.20;;
29838;SDS011;18669;53.356;-1.464;2023-01-13T02:36:02;15.68;;;2.47;;
29838;SDS011;18669;53.356;-1.464;2023-01-13T02:38:55;8.95;;;1.85;;
29838;SDS011;18669;53.356;-1.464;2023-01-13T02:44:21;9.63;;;1.80;;
29838;SDS011;18669;53.356;-1.464;2023-01-13T02:46:53;10.23;;;1.90;;
29838;SDS011;18669;53.356;-1.464;2023-01-13T02:49:23;12.02;;;1.98;;
29838;SDS011;18669;53.356;-1.464;2023-01-13T02:51:55;14.27;;;2.72;;
29838;SDS011;18669;53.356;-1.464;2023-01-13T02:54:28;14.27;;;1.95;;
29838;SDS011;18669;53.356;-1.464;2023-01-13T02:56:58;10.25;;;1.70;;
29838;SDS011;18669;53.356;-1.464;2023-01-13T02:59:26;12.05;;;2.40;;
29838;SDS011;18669;53.356;-1.464;2023-01-13T03:01:55;8.38;;;1.88;;
29838;SDS011;18669;53.356;-1.464;2023-01-13T03:04:43;12.48;;;2.45;;
29838;SDS011;18669;53.356;-1.464;2023-01-13T03:07:21;10.60;;;2.00;;
29838;SDS011;18669;53.356;-1.464;2023-01-13T03:21:07;12.38;;;1.95;;
29838;SDS011;18669;53.356;-1.464;2023-01-13T03:26:22;10.57;;;1.98;;
29838;SDS011;18669;53.356;-1.464;2023-01-13T03:28:54;13.88;;;1.88;;
29838;SDS011;18669;53.356;-1.464;2023-01-13T03:31:28;4.57;;;1.60;;
29838;SDS011;18669;53.356;-1.464;2023-01-13T03:33:58;10.07;;;1.60;;
29838;SDS011;18669;53.356;-1.464;2023-01-13T03:36:28;9.50;;;1.90;;
29838;SDS011;18669;53.356;-1.464;2023-01-13T03:38:58;10.90;;;1.48;;
29838;SDS011;18669;53.356;-1.464;2023-01-13T03:41:32;8.38;;;1.60;;
29838;SDS011;18669;53.356;-1.464;2023-01-13T03:44:04;9.55;;;1.52;;
29838;SDS011;18669;53.356;-1.464;2023-01-13T03:49:36;12.30;;;2.38;;
29838;SDS011;18669;53.356;-1.464;2023-01-13T03:54:35;12.45;;;2.20;;
29838;SDS011;18669;53.356;-1.464;2023-01-13T03:57:09;8.15;;;2.17;;
29838;SDS011;18669;53.356;-1.464;2023-01-13T03:59:40;20.73;;;2.72;;
29838;SDS011;18669;53.356;-1.464;2023-01-13T04:02:17;15.18;;;2.70;;
29838;SDS011;18669;53.356;-1.464;2023-01-13T04:04:57;16.40;;;3.17;;
29838;SDS011;18669;53.356;-1.464;2023-01-13T04:10:24;8.50;;;2.65;;
29838;SDS011;18669;53.356;-1.464;2023-01-13T04:12:59;11.63;;;2.60;;
29838;SDS011;18669;53.356;-1.464;2023-01-13T04:15:39;11.95;;;3.05;;
29838;SDS011;18669;53.356;-1.464;2023-01-13T04:18:19;7.55;;;2.40;;
29838;SDS011;18669;53.356;-1.464;2023-01-13T04:20:50;12.05;;;2.30;;
29838;SDS011;18669;53.356;-1.464;2023-01-13T04:23:18;10.43;;;2.13;;
29838;SDS011;18669;53.356;-1.464;2023-01-13T04:25:46;9.55;;;2.05;;
29838;SDS011;18669;53.356;-1.464;2023-01-13T04:28:12;7.95;;;2.35;;
29838;SDS011;18669;53.356;-1.464;2023-01-13T04:30:39;10.07;;;2.42;;
29838;SDS011;18669;53.356;-1.464;2023-01-13T04:33:06;10.48;;;2.50;;
29838;SDS011;18669;53.356;-1.464;2023-01-13T04:35:34;8.95;;;2.50;;
29838;SDS011;18669;53.356;-1.464;2023-01-13T04:38:01;6.47;;;2.33;;
29838;SDS011;18669;53.356;-1.464;2023-01-13T04:40:33;6.97;;;2.17;;
29838;SDS011;18669;53.356;-1.464;2023-01-13T04:43:00;11.18;;;2.45;;
29838;SDS011;18669;53.356;-1.464;2023-01-13T04:45:26;9.65;;;1.90;;
29838;SDS011;18669;53.356;-1.464;2023-01-13T04:47:52;6.90;;;1.75;;
29838;SDS011;18669;53.356;-1.464;2023-01-13T04:50:18;14.45;;;2.33;;
29838;SDS011;18669;53.356;-1.464;2023-01-13T04:52:46;8.50;;;2.30;;
29838;SDS011;18669;53.356;-1.464;2023-01-13T04:55:12;10.13;;;1.90;;
29838;SDS011;18669;53.356;-1.464;2023-01-13T05:00:05;8.15;;;1.50;;
29838;SDS011;18669;53.356;-1.464;2023-01-13T05:02:32;7.80;;;1.52;;
29838;SDS011;18669;53.356;-1.464;2023-01-13T05:07:24;6.78;;;1.67;;
29838;SDS011;18669;53.356;-1.464;2023-01-13T05:09:50;4.03;;;1.48;;
29838;SDS011;18669;53.356;-1.464;2023-01-13T05:12:17;9.45;;;1.63;;
29838;SDS011;18669;53.356;-1.464;2023-01-13T05:15:03;5.53;;;1.03;;
29838;SDS011;18669;53.356;-1.464;2023-01-13T05:17:48;8.40;;;1.30;;
29838;SDS011;18669;53.356;-1.464;2023-01-13T05:20:15;9.82;;;1.52;;
29838;SDS011;18669;53.356;-1.464;2023-01-13T05:22:42;13.13;;;1.60;;
29838;SDS011;18669;53.356;-1.464;2023-01-13T05:25:27;6.10;;;1.40;;
29838;SDS011;18669;53.356;-1.464;2023-01-13T05:27:54;7.35;;;1.30;;
29838;SDS011;18669;53.356;-1.464;2023-01-13T05:30:22;5.30;;;1.40;;
29838;SDS011;18669;53.356;-1.464;2023-01-13T05:32:51;8.15;;;1.70;;
29838;SDS011;18669;53.356;-1.464;2023-01-13T05:35:18;8.65;;;1.48;;
29838;SDS011;18669;53.356;-1.464;2023-01-13T05:40:11;11.83;;;1.30;;
29838;SDS011;18669;53.356;-1.464;2023-01-13T05:43:16;8.50;;;1.10;;
29838;SDS011;18669;53.356;-1.464;2023-01-13T05:45:49;9.27;;;1.27;;
29838;SDS011;18669;53.356;-1.464;2023-01-13T05:50:57;4.30;;;1.00;;
29838;SDS011;18669;53.356;-1.464;2023-01-13T05:53:23;9.75;;;1.65;;
29838;SDS011;18669;53.356;-1.464;2023-01-13T05:58:18;7.97;;;1.20;;
29838;SDS011;18669;53.356;-1.464;2023-01-13T06:00:46;9.80;;;1.05;;
29838;SDS011;18669;53.356;-1.464;2023-01-13T06:03:12;9.27;;;1.20;;
29838;SDS011;18669;53.356;-1.464;2023-01-13T06:05:38;9.95;;;1.58;;
29838;SDS011;18669;53.356;-1.464;2023-01-13T06:08:06;11.43;;;1.77;;
29838;SDS011;18669;53.356;-1.464;2023-01-13T06:10:33;4.65;;;1.20;;
29838;SDS011;18669;53.356;-1.464;2023-01-13T06:13:00;12.63;;;1.40;;
29838;SDS011;18669;53.356;-1.464;2023-01-13T06:15:27;11.60;;;1.42;;
29838;SDS011;18669;53.356;-1.464;2023-01-13T06:17:53;8.23;;;1.33;;
29838;SDS011;18669;53.356;-1.464;2023-01-13T06:20:21;7.25;;;1.27;;
29838;SDS011;18669;53.356;-1.464;2023-01-13T06:22:48;7.60;;;1.35;;
29838;SDS011;18669;53.356;-1.464;2023-01-13T06:28:04;7.32;;;0.98;;
29838;SDS011;18669;53.356;-1.464;2023-01-13T06:30:33;5.15;;;1.45;;
29838;SDS011;18669;53.356;-1.464;2023-01-13T06:33:03;8.25;;;1.55;;
29838;SDS011;18669;53.356;-1.464;2023-01-13T06:35:35;7.43;;;1.23;;
29838;SDS011;18669;53.356;-1.464;2023-01-13T06:38:04;9.38;;;1.48;;
29838;SDS011;18669;53.356;-1.464;2023-01-13T06:40:35;8.88;;;1.13;;
29838;SDS011;18669;53.356;-1.464;2023-01-13T06:43:01;7.30;;;1.90;;
29838;SDS011;18669;53.356;-1.464;2023-01-13T06:45:45;7.85;;;1.90;;
29838;SDS011;18669;53.356;-1.464;2023-01-13T06:48:18;7.47;;;1.33;;
29838;SDS011;18669;53.356;-1.464;2023-01-13T06:50:46;7.55;;;1.25;;
29838;SDS011;18669;53.356;-1.464;2023-01-13T06:53:13;9.95;;;1.20;;
29838;SDS011;18669;53.356;-1.464;2023-01-13T06:55:39;6.28;;;1.27;;
29838;SDS011;18669;53.356;-1.464;2023-01-13T06:58:05;8.05;;;1.67;;
29838;SDS011;18669;53.356;-1.464;2023-01-13T07:00:31;7.10;;;1.60;;
29838;SDS011;18669;53.356;-1.464;2023-01-13T07:03:07;6.07;;;1.15;;
29838;SDS011;18669;53.356;-1.464;2023-01-13T07:05:41;8.00;;;1.02;;
29838;SDS011;18669;53.356;-1.464;2023-01-13T07:08:09;8.65;;;1.40;;
29838;SDS011;18669;53.356;-1.464;2023-01-13T07:15:57;5.07;;;1.00;;
29838;SDS011;18669;53.356;-1.464;2023-01-13T07:18:29;12.45;;;1.65;;
29838;SDS011;18669;53.356;-1.464;2023-01-13T07:21:06;8.98;;;1.38;;
29838;SDS011;18669;53.356;-1.464;2023-01-13T07:23:35;24.00;;;2.67;;
29838;SDS011;18669;53.356;-1.464;2023-01-13T07:26:03;14.30;;;1.48;;
29838;SDS011;18669;53.356;-1.464;2023-01-13T07:28:30;5.45;;;1.30;;
29838;SDS011;18669;53.356;-1.464;2023-01-13T07:30:57;6.93;;;1.13;;
29838;SDS011;18669;53.356;-1.464;2023-01-13T07:33:24;3.65;;;1.10;;
29838;SDS011;18669;53.356;-1.464;2023-01-13T07:35:57;5.10;;;1.10;;
29838;SDS011;18669;53.356;-1.464;2023-01-13T07:38:25;7.53;;;1.65;;
29838;SDS011;18669;53.356;-1.464;2023-01-13T07:40:52;8.05;;;1.50;;
29838;SDS011;18669;53.356;-1.464;2023-01-13T07:43:18;8.68;;;1.80;;
29838;SDS011;18669;53.356;-1.464;2023-01-13T07:45:57;9.38;;;1.58;;
29838;SDS011;18669;53.356;-1.464;2023-01-13T07:48:24;9.10;;;1.50;;
29838;SDS011;18669;53.356;-1.464;2023-01-13T07:50:52;7.43;;;1.75;;
29838;SDS011;18669;53.356;-1.464;2023-01-13T07:53:18;16.15;;;1.45;;
29838;SDS011;18669;53.356;-1.464;2023-01-13T07:55:46;8.13;;;1.75;;
29838;SDS011;18669;53.356;-1.464;2023-01-13T07:58:12;6.93;;;1.52;;
29838;SDS011;18669;53.356;-1.464;2023-01-13T08:00:38;7.25;;;1.90;;
29838;SDS011;18669;53.356;-1.464;2023-01-13T08:03:04;7.38;;;1.25;;
29838;SDS011;18669;53.356;-1.464;2023-01-13T08:05:30;5.63;;;1.30;;
29838;SDS011;18669;53.356;-1.464;2023-01-13T08:07:57;11.32;;;2.97;;
29838;SDS011;18669;53.356;-1.464;2023-01-13T08:10:23;9.30;;;1.67;;
29838;SDS011;18669;53.356;-1.464;2023-01-13T08:12:49;5.05;;;1.00;;
29838;SDS011;18669;53.356;-1.464;2023-01-13T08:15:34;6.22;;;1.67;;
29838;SDS011;18669;53.356;-1.464;2023-01-13T08:18:00;10.48;;;1.52;;
29838;SDS011;18669;53.356;-1.464;2023-01-13T08:20:26;9.05;;;1.35;;
29838;SDS011;18669;53.356;-1.464;2023-01-13T08:22:56;13.65;;;1.70;;
29838;SDS011;18669;53.356;-1.464;2023-01-13T08:25:24;6.85;;;1.27;;
29838;SDS011;18669;53.356;-1.464;2023-01-13T08:27:52;5.30;;;1.02;;
29838;SDS011;18669;53.356;-1.464;2023-01-13T08:30:18;10.05;;;1.00;;
29838;SDS011;18669;53.356;-1.464;2023-01-13T08:32:48;6.28;;;1.00;;
29838;SDS011;18669;53.356;-1.464;2023-01-13T08:35:15;7.95;;;1.05;;
29838;SDS011;18669;53.356;-1.464;2023-01-13T08:37:42;6.90;;;1.20;;
29838;SDS011;18669;53.356;-1.464;2023-01-13T08:40:10;5.30;;;0.90;;
29838;SDS011;18669;53.356;-1.464;2023-01-13T08:42:36;7.63;;;1.20;;
29838;SDS011;18669;53.356;-1.464;2023-01-13T08:45:03;9.93;;;2.38;;
29838;SDS011;18669;53.356;-1.464;2023-01-13T08:47:30;10.90;;;1.90;;
29838;SDS011;18669;53.356;-1.464;2023-01-13T08:49:56;7.60;;;1.15;;
29838;SDS011;18669;53.356;-1.464;2023-01-13T08:52:23;6.20;;;1.42;;
29838;SDS011;18669;53.356;-1.464;2023-01-13T08:54:49;6.15;;;1.50;;
29838;SDS011;18669;53.356;-1.464;2023-01-13T08:57:15;13.25;;;1.25;;
29838;SDS011;18669;53.356;-1.464;2023-01-13T08:59:44;6.80;;;1.90;;
29838;SDS011;18669;53.356;-1.464;2023-01-13T09:02:15;7.03;;;1.20;;
29838;SDS011;18669;53.356;-1.464;2023-01-13T09:04:43;6.28;;;1.60;;
29838;SDS011;18669;53.356;-1.464;2023-01-13T09:07:09;5.07;;;1.10;;
29838;SDS011;18669;53.356;-1.464;2023-01-13T09:09:36;10.13;;;1.85;;
29838;SDS011;18669;53.356;-1.464;2023-01-13T09:12:03;8.45;;;1.40;;
29838;SDS011;18669;53.356;-1.464;2023-01-13T09:14:48;7.00;;;1.65;;
29838;SDS011;18669;53.356;-1.464;2023-01-13T09:17:15;5.38;;;1.50;;
29838;SDS011;18669;53.356;-1.464;2023-01-13T09:19:41;12.70;;;1.60;;
29838;SDS011;18669;53.356;-1.464;2023-01-13T09:22:09;4.10;;;1.40;;
29838;SDS011;18669;53.356;-1.464;2023-01-13T09:24:42;8.77;;;1.30;;
29838;SDS011;18669;53.356;-1.464;2023-01-13T09:27:09;12.32;;;1.23;;
29838;SDS011;18669;53.356;-1.464;2023-01-13T09:29:37;8.55;;;1.50;;
29838;SDS011;18669;53.356;-1.464;2023-01-13T09:32:03;8.57;;;1.30;;
29838;SDS011;18669;53.356;-1.464;2023-01-13T09:34:31;7.35;;;1.60;;
29838;SDS011;18669;53.356;-1.464;2023-01-13T09:37:16;9.32;;;1.42;;
29838;SDS011;18669;53.356;-1.464;2023-01-13T09:45:04;8.35;;;1.75;;
29838;SDS011;18669;53.356;-1.464;2023-01-13T09:47:38;8.50;;;1.80;;
29838;SDS011;18669;53.356;-1.464;2023-01-13T09:52:39;8.45;;;1.33;;
29838;SDS011;18669;53.356;-1.464;2023-01-13T09:55:12;5.72;;;1.52;;
29838;SDS011;18669;53.356;-1.464;2023-01-13T09:57:41;7.80;;;1.27;;
29838;SDS011;18669;53.356;-1.464;2023-01-13T10:03:09;5.65;;;0.80;;
29838;SDS011;18669;53.356;-1.464;2023-01-13T10:08:20;7.68;;;1.80;;
29838;SDS011;18669;53.356;-1.464;2023-01-13T10:10:53;10.77;;;1.35;;
29838;SDS011;18669;53.356;-1.464;2023-01-13T10:13:29;9.90;;;1.20;;
29838;SDS011;18669;53.356;-1.464;2023-01-13T10:29:33;9.13;;;3.65;;
29838;SDS011;18669;53.356;-1.464;2023-01-13T10:32:01;10.73;;;2.05;;
29838;SDS011;18669;53.356;-1.464;2023-01-13T10:34:28;6.15;;;1.95;;
29838;SDS011;18669;53.356;-1.464;2023-01-13T10:39:43;7.85;;;2.00;;
29838;SDS011;18669;53.356;-1.464;2023-01-13T10:42:15;11.98;;;2.00;;
29838;SDS011;18669;53.356;-1.464;2023-01-13T10:45:01;10.52;;;2.47;;
29838;SDS011;18669;53.356;-1.464;2023-01-13T10:47:32;16.98;;;2.80;;
29838;SDS011;18669;53.356;-1.464;2023-01-13T10:50:01;11.10;;;1.70;;
29838;SDS011;18669;53.356;-1.464;2023-01-13T10:52:34;9.55;;;1.33;;
29838;SDS011;18669;53.356;-1.464;2023-01-13T10:55:22;10.52;;;1.45;;
29838;SDS011;18669;53.356;-1.464;2023-01-13T10:58:18;8.00;;;1.20;;
29838;SDS011;18669;53.356;-1.464;2023-01-13T11:00:46;7.15;;;0.95;;
29838;SDS011;18669;53.356;-1.464;2023-01-13T11:03:15;4.57;;;1.42;;
29838;SDS011;18669;53.356;-1.464;2023-01-13T11:05:46;6.88;;;1.83;;
29838;SDS011;18669;53.356;-1.464;2023-01-13T11:08:19;9.40;;;1.60;;
29838;SDS011;18669;53.356;-1.464;2023-01-13T11:10:48;6.93;;;1.85;;
29838;SDS011;18669;53.356;-1.464;2023-01-13T11:13:28;9.13;;;2.05;;
29838;SDS011;18669;53.356;-1.464;2023-01-13T11:16:24;4.03;;;1.45;;
29838;SDS011;18669;53.356;-1.464;2023-01-13T11:18:56;6.45;;;1.90;;
29838;SDS011;18669;53.356;-1.464;2023-01-13T11:21:54;4.45;;;1.08;;
29838;SDS011;18669;53.356;-1.464;2023-01-13T11:27:23;7.45;;;1.98;;
29838;SDS011;18669;53.356;-1.464;2023-01-13T11:30:00;3.33;;;1.48;;
29838;SDS011;18669;53.356;-1.464;2023-01-13T11:35:30;5.03;;;1.00;;
29838;SDS011;18669;53.356;-1.464;2023-01-13T11:38:02;4.10;;;1.15;;
29838;SDS011;18669;53.356;-1.464;2023-01-13T11:40:39;6.20;;;1.20;;
29838;SDS011;18669;53.356;-1.464;2023-01-13T11:43:11;3.65;;;1.15;;
29838;SDS011;18669;53.356;-1.464;2023-01-13T11:45:48;6.45;;;1.50;;
29838;SDS011;18669;53.356;-1.464;2023-01-13T11:48:20;4.95;;;0.95;;
29838;SDS011;18669;53.356;-1.464;2023-01-13T11:50:59;3.13;;;0.82;;
29838;SDS011;18669;53.356;-1.464;2023-01-13T11:56:35;6.10;;;1.30;;
29838;SDS011;18669;53.356;-1.464;2023-01-13T12:02:42;5.35;;;1.20;;
29838;SDS011;18669;53.356;-1.464;2023-01-13T12:05:39;3.05;;;0.90;;
29838;SDS011;18669;53.356;-1.464;2023-01-13T12:14:01;9.23;;;1.65;;
29838;SDS011;18669;53.356;-1.464;2023-01-13T12:16:40;8.45;;;1.23;;
29838;SDS011;18669;53.356;-1.464;2023-01-13T12:21:50;8.57;;;1.25;;
29838;SDS011;18669;53.356;-1.464;2023-01-13T12:25:03;12.07;;;1.77;;
29838;SDS011;18669;53.356;-1.464;2023-01-13T12:27:40;6.80;;;1.20;;
29838;SDS011;18669;53.356;-1.464;2023-01-13T12:30:35;7.18;;;1.67;;
29838;SDS011;18669;53.356;-1.464;2023-01-13T12:33:11;5.63;;;1.65;;
29838;SDS011;18669;53.356;-1.464;2023-01-13T12:35:49;8.00;;;1.40;;
29838;SDS011;18669;53.356;-1.464;2023-01-13T12:39:28;7.00;;;1.20;;
29838;SDS011;18669;53.356;-1.464;2023-01-13T12:44:30;9.40;;;1.30;;
29838;SDS011;18669;53.356;-1.464;2023-01-13T12:46:57;4.82;;;1.45;;
29838;SDS011;18669;53.356;-1.464;2023-01-13T12:49:28;3.88;;;1.25;;
29838;SDS011;18669;53.356;-1.464;2023-01-13T12:52:00;2.35;;;0.77;;
29838;SDS011;18669;53.356;-1.464;2023-01-13T12:57:19;3.22;;;1.25;;
29838;SDS011;18669;53.356;-1.464;2023-01-13T13:04:56;5.45;;;1.73;;
29838;SDS011;18669;53.356;-1.464;2023-01-13T13:10:39;5.70;;;1.60;;
29838;SDS011;18669;53.356;-1.464;2023-01-13T13:13:21;5.35;;;1.20;;
29838;SDS011;18669;53.356;-1.464;2023-01-13T13:18:50;10.30;;;1.92;;
29838;SDS011;18669;53.356;-1.464;2023-01-13T13:21:17;5.38;;;1.33;;
29838;SDS011;18669;53.356;-1.464;2023-01-13T13:23:44;6.63;;;1.70;;
29838;SDS011;18669;53.356;-1.464;2023-01-13T13:26:37;8.07;;;1.35;;
29838;SDS011;18669;53.356;-1.464;2023-01-13T13:39:40;7.32;;;1.33;;
29838;SDS011;18669;53.356;-1.464;2023-01-13T13:42:27;7.70;;;1.52;;
29838;SDS011;18669;53.356;-1.464;2023-01-13T13:45:19;10.55;;;2.20;;
29838;SDS011;18669;53.356;-1.464;2023-01-13T13:50:51;12.70;;;1.83;;
29838;SDS011;18669;53.356;-1.464;2023-01-13T13:53:31;10.10;;;1.83;;
29838;SDS011;18669;53.356;-1.464;2023-01-13T13:56:00;9.65;;;1.40;;
29838;SDS011;18669;53.356;-1.464;2023-01-13T13:58:30;10.00;;;1.38;;
29838;SDS011;18669;53.356;-1.464;2023-01-13T14:01:00;11.38;;;1.92;;
29838;SDS011;18669;53.356;-1.464;2023-01-13T14:03:29;11.00;;;1.63;;
29838;SDS011;18669;53.356;-1.464;2023-01-13T14:05:58;14.07;;;2.67;;
29838;SDS011;18669;53.356;-1.464;2023-01-13T14:08:28;8.07;;;1.77;;
29838;SDS011;18669;53.356;-1.464;2023-01-13T14:10:55;8.68;;;1.63;;
29838;SDS011;18669;53.356;-1.464;2023-01-13T14:16:10;21.38;;;2.25;;
29838;SDS011;18669;53.356;-1.464;2023-01-13T14:18:42;11.77;;;2.25;;
29838;SDS011;18669;53.356;-1.464;2023-01-13T14:21:16;10.23;;;1.83;;
29838;SDS011;18669;53.356;-1.464;2023-01-13T14:23:58;13.57;;;2.30;;
29838;SDS011;18669;53.356;-1.464;2023-01-13T14:26:36;17.92;;;2.42;;
29838;SDS011;18669;53.356;-1.464;2023-01-13T14:31:28;12.70;;;2.13;;
29838;SDS011;18669;53.356;-1.464;2023-01-13T14:33:56;19.92;;;2.33;;
29838;SDS011;18669;53.356;-1.464;2023-01-13T14:36:45;14.18;;;3.28;;
29838;SDS011;18669;53.356;-1.464;2023-01-13T14:44:11;18.20;;;4.05;;
29838;SDS011;18669;53.356;-1.464;2023-01-13T14:46:42;15.27;;;2.83;;
29838;SDS011;18669;53.356;-1.464;2023-01-13T14:52:02;17.85;;;3.42;;
29838;SDS011;18669;53.356;-1.464;2023-01-13T14:54:41;11.10;;;2.38;;
29838;SDS011;18669;53.356;-1.464;2023-01-13T14:57:23;15.50;;;2.17;;
29838;SDS011;18669;53.356;-1.464;2023-01-13T15:04:55;12.32;;;1.80;;
29838;SDS011;18669;53.356;-1.464;2023-01-13T15:10:50;13.18;;;2.30;;
29838;SDS011;18669;53.356;-1.464;2023-01-13T15:13:28;11.65;;;2.13;;
29838;SDS011;18669;53.356;-1.464;2023-01-13T15:16:01;14.57;;;2.00;;
29838;SDS011;18669;53.356;-1.464;2023-01-13T15:18:29;16.23;;;1.95;;
29838;SDS011;18669;53.356;-1.464;2023-01-13T15:20:57;10.50;;;1.85;;
29838;SDS011;18669;53.356;-1.464;2023-01-13T15:23:23;9.07;;;2.05;;
29838;SDS011;18669;53.356;-1.464;2023-01-13T15:25:49;12.90;;;2.10;;
29838;SDS011;18669;53.356;-1.464;2023-01-13T15:28:19;16.35;;;2.55;;
29838;SDS011;18669;53.356;-1.464;2023-01-13T15:30:50;9.95;;;1.83;;
29838;SDS011;18669;53.356;-1.464;2023-01-13T15:33:17;15.90;;;2.42;;
29838;SDS011;18669;53.356;-1.464;2023-01-13T15:35:45;18.73;;;2.72;;
29838;SDS011;18669;53.356;-1.464;2023-01-13T15:38:17;11.82;;;2.50;;
29838;SDS011;18669;53.356;-1.464;2023-01-13T15:40:45;16.92;;;3.40;;
29838;SDS011;18669;53.356;-1.464;2023-01-13T15:43:13;13.90;;;2.70;;
29838;SDS011;18669;53.356;-1.464;2023-01-13T15:46:00;14.50;;;3.30;;
29838;SDS011;18669;53.356;-1.464;2023-01-13T15:48:46;16.75;;;2.88;;
29838;SDS011;18669;53.356;-1.464;2023-01-13T15:51:14;20.73;;;3.20;;
29838;SDS011;18669;53.356;-1.464;2023-01-13T15:53:40;18.20;;;3.08;;
29838;SDS011;18669;53.356;-1.464;2023-01-13T15:56:28;11.98;;;2.55;;
29838;SDS011;18669;53.356;-1.464;2023-01-13T15:58:53;17.55;;;2.50;;
29838;SDS011;18669;53.356;-1.464;2023-01-13T16:03:45;16.13;;;3.75;;
29838;SDS011;18669;53.356;-1.464;2023-01-13T16:06:17;10.45;;;2.10;;
29838;SDS011;18669;53.356;-1.464;2023-01-13T16:08:45;9.85;;;1.90;;
29838;SDS011;18669;53.356;-1.464;2023-01-13T16:11:12;12.75;;;2.55;;
29838;SDS011;18669;53.356;-1.464;2023-01-13T16:13:39;19.58;;;3.53;;
29838;SDS011;18669;53.356;-1.464;2023-01-13T16:16:17;14.27;;;3.10;;
29838;SDS011;18669;53.356;-1.464;2023-01-13T16:18:46;21.20;;;2.65;;
29838;SDS011;18669;53.356;-1.464;2023-01-13T16:21:13;18.15;;;2.70;;
29838;SDS011;18669;53.356;-1.464;2023-01-13T16:23:39;12.60;;;2.03;;
29838;SDS011;18669;53.356;-1.464;2023-01-13T16:26:09;14.20;;;2.25;;
29838;SDS011;18669;53.356;-1.464;2023-01-13T16:28:42;24.23;;;2.95;;
29838;SDS011;18669;53.356;-1.464;2023-01-13T16:34:01;21.50;;;2.95;;
29838;SDS011;18669;53.356;-1.464;2023-01-13T16:36:29;17.85;;;3.15;;
29838;SDS011;18669;53.356;-1.464;2023-01-13T16:38:58;15.63;;;2.88;;
29838;SDS011;18669;53.356;-1.464;2023-01-13T16:43:50;17.00;;;3.20;;
29838;SDS011;18669;53.356;-1.464;2023-01-13T16:46:20;14.93;;;2.72;;
29838;SDS011;18669;53.356;-1.464;2023-01-13T16:48:54;14.95;;;2.63;;
29838;SDS011;18669;53.356;-1.464;2023-01-13T16:51:26;19.50;;;2.92;;
29838;SDS011;18669;53.356;-1.464;2023-01-13T16:53:52;24.73;;;3.35;;
29838;SDS011;18669;53.356;-1.464;2023-01-13T16:58:51;18.63;;;2.65;;
29838;SDS011;18669;53.356;-1.464;2023-01-13T17:01:21;20.00;;;3.00;;
29838;SDS011;18669;53.356;-1.464;2023-01-13T17:03:51;12.45;;;2.40;;
29838;SDS011;18669;53.356;-1.464;2023-01-13T17:06:20;23.67;;;2.75;;
29838;SDS011;18669;53.356;-1.464;2023-01-13T17:08:53;22.63;;;3.45;;
29838;SDS011;18669;53.356;-1.464;2023-01-13T17:11:24;25.80;;;4.30;;
29838;SDS011;18669;53.356;-1.464;2023-01-13T17:16:18;21.83;;;3.28;;
29838;SDS011;18669;53.356;-1.464;2023-01-13T17:18:46;19.10;;;3.83;;
29838;SDS011;18669;53.356;-1.464;2023-01-13T17:21:13;19.30;;;3.22;;
29838;SDS011;18669;53.356;-1.464;2023-01-13T17:23:40;21.13;;;4.50;;
29838;SDS011;18669;53.356;-1.464;2023-01-13T17:28:32;17.10;;;3.75;;
29838;SDS011;18669;53.356;-1.464;2023-01-13T17:30:58;19.20;;;3.80;;
29838;SDS011;18669;53.356;-1.464;2023-01-13T17:33:25;17.52;;;3.63;;
29838;SDS011;18669;53.356;-1.464;2023-01-13T17:35:51;16.58;;;3.47;;
29838;SDS011;18669;53.356;-1.464;2023-01-13T17:40:43;22.48;;;3.10;;
29838;SDS011;18669;53.356;-1.464;2023-01-13T17:43:09;16.27;;;3.30;;
29838;SDS011;18669;53.356;-1.464;2023-01-13T17:48:05;17.42;;;3.90;;
29838;SDS011;18669;53.356;-1.464;2023-01-13T17:52:59;15.77;;;3.85;;
29838;SDS011;18669;53.356;-1.464;2023-01-13T17:57:51;22.08;;;4.90;;
29838;SDS011;18669;53.356;-1.464;2023-01-13T18:00:17;21.92;;;3.42;;